24h
KLIENDITUGI:
Saartelennuliinid: +372 58856336 (24/7)
Estairi piletikassa lennujaamas:
+372 6058887; +372 55603687

28.05.2019 hommikune Transaviabaltika lend KTB670 kell 07:00 (kohalik aeg) Tallinn - Kärdla väljalend ja KTB671 kell 07:45 Kärdla – Tallinn väljalend jääb ära. Lennu ära jäämise põhjustab ilmastikuolu Kärdla lennuväljal. Kõikidele reisijatele tagastatakse piletiraha või võimaldatakse piletid ümber vormistada. Lisainformatsioon 58856336. Informatsiooni vahetus: [email protected]

EEKA Kärdla lennuväli

FCEO32 EETN 280300

TAF EEKA 280300Z 2804/2810 21010KT 9999 SCT005 BKN020 TEMPO 2804/2807

OVC003 PROB40 TEMPO 2804/2807 0800 FG=

SPECI EEKA 280350Z 19007KT 8000 BKN002 09/08 Q1005=
Kuupäev: 
17/05/2019